Bardwell, Texas
Current Conditions -  °F | °C
As of 5:55 AM on Thursday 23 Oct 2014 (Local Time) from KJWY Reporting Station
Overcast Overcast  
Wind Chill: 62°   Ceiling: 8000
Heat Index: 62°   Visibility: 10mi
Dew Point: 57°   Wind: 0mph
Humidity: 83%   Direction: NA
Pressure: 30.14"   Gusts: NA
Location:  32.27°N, 96.7°W
Report Text: KJWY 231055Z AUTO 00000KT 10SM OVC080 17/14 A3014 RMK AO2 T01650137
Loading
Personal Weather Stations






























Interactive Weather Map
Tropical Storm Tracking
New forecast layout! Learn more

10-Day Weather Forecast

Advertisements
Track Severe Weather on mobile